Terminal Aerodrome Forecast
Issued by NWS Newport/Morehead City, NC

Home | Current Version | Previous Version | Graphics & Text | Print | Product List | Glossary On
Versions: 1 2 3 4 5 6 7 8 9 10 11 12 13 14 15
000
FTUS42 KMHX 151721
TAFEWN
TAF
KEWN 151721Z 1518/1618 25006KT P6SM SCT025
     FM160600 VRB04KT 3SM BR FEW005 SCT250
     FM161300 34007KT P6SM BKN020=

USA.gov is the U.S. government's official web portal to all federal, state and local government web resources and services.